sensor_id;sensor_type;location;lat;lon;timestamp;temperature;humidity
26707;DHT22;14319;49.422;10.934;2023-07-20T00:01:44;17.80;99.90
26707;DHT22;14319;49.422;10.934;2023-07-20T00:03:45;17.90;99.90
26707;DHT22;14319;49.422;10.934;2023-07-20T00:05:55;18.00;99.90
26707;DHT22;14319;49.422;10.934;2023-07-20T00:07:55;18.20;99.90
26707;DHT22;14319;49.422;10.934;2023-07-20T00:09:57;18.20;99.90
26707;DHT22;14319;49.422;10.934;2023-07-20T00:11:57;18.20;99.90
26707;DHT22;14319;49.422;10.934;2023-07-20T00:14:00;18.30;99.90
26707;DHT22;14319;49.422;10.934;2023-07-20T00:16:01;18.10;99.90
26707;DHT22;14319;49.422;10.934;2023-07-20T00:18:01;17.90;99.90
26707;DHT22;14319;49.422;10.934;2023-07-20T00:20:02;17.80;99.90
26707;DHT22;14319;49.422;10.934;2023-07-20T00:22:05;17.60;99.90
26707;DHT22;14319;49.422;10.934;2023-07-20T00:24:06;17.60;99.90
26707;DHT22;14319;49.422;10.934;2023-07-20T00:26:06;17.70;99.90
26707;DHT22;14319;49.422;10.934;2023-07-20T00:28:07;18.00;99.90
26707;DHT22;14319;49.422;10.934;2023-07-20T00:30:08;18.10;99.90
26707;DHT22;14319;49.422;10.934;2023-07-20T00:32:08;18.00;99.90
26707;DHT22;14319;49.422;10.934;2023-07-20T00:34:09;17.90;99.90
26707;DHT22;14319;49.422;10.934;2023-07-20T00:36:10;17.80;99.90
26707;DHT22;14319;49.422;10.934;2023-07-20T00:38:10;17.80;99.90
26707;DHT22;14319;49.422;10.934;2023-07-20T00:40:12;17.70;99.90
26707;DHT22;14319;49.422;10.934;2023-07-20T00:42:12;17.60;99.90
26707;DHT22;14319;49.422;10.934;2023-07-20T00:44:13;17.60;99.90
26707;DHT22;14319;49.422;10.934;2023-07-20T00:46:14;17.50;99.90
26707;DHT22;14319;49.422;10.934;2023-07-20T00:48:15;17.40;99.90
26707;DHT22;14319;49.422;10.934;2023-07-20T00:50:17;17.30;99.90
26707;DHT22;14319;49.422;10.934;2023-07-20T00:52:21;17.40;99.90
26707;DHT22;14319;49.422;10.934;2023-07-20T00:54:23;17.30;99.90
26707;DHT22;14319;49.422;10.934;2023-07-20T00:56:24;17.30;99.90
26707;DHT22;14319;49.422;10.934;2023-07-20T00:58:24;17.50;99.90
26707;DHT22;14319;49.422;10.934;2023-07-20T01:00:26;17.60;99.90
26707;DHT22;14319;49.422;10.934;2023-07-20T01:02:26;17.70;99.90
26707;DHT22;14319;49.422;10.934;2023-07-20T01:04:28;17.70;99.90
26707;DHT22;14319;49.422;10.934;2023-07-20T01:13:22;17.70;99.90
26707;DHT22;14319;49.422;10.934;2023-07-20T01:15:23;17.70;99.90
26707;DHT22;14319;49.422;10.934;2023-07-20T01:17:24;17.70;99.90
26707;DHT22;14319;49.422;10.934;2023-07-20T01:19:25;17.60;99.90
26707;DHT22;14319;49.422;10.934;2023-07-20T01:21:32;17.50;99.90
26707;DHT22;14319;49.422;10.934;2023-07-20T01:28:57;17.50;99.90
26707;DHT22;14319;49.422;10.934;2023-07-20T01:33:19;17.50;99.90
26707;DHT22;14319;49.422;10.934;2023-07-20T01:35:23;17.50;99.90
26707;DHT22;14319;49.422;10.934;2023-07-20T01:37:24;17.50;99.90
26707;DHT22;14319;49.422;10.934;2023-07-20T01:39:28;17.40;99.90
26707;DHT22;14319;49.422;10.934;2023-07-20T01:41:29;17.30;99.90
26707;DHT22;14319;49.422;10.934;2023-07-20T01:43:29;17.30;99.90
26707;DHT22;14319;49.422;10.934;2023-07-20T01:45:30;17.10;99.90
26707;DHT22;14319;49.422;10.934;2023-07-20T01:47:31;17.10;99.90
26707;DHT22;14319;49.422;10.934;2023-07-20T01:49:32;17.20;99.90
26707;DHT22;14319;49.422;10.934;2023-07-20T01:51:33;17.20;99.90
26707;DHT22;14319;49.422;10.934;2023-07-20T01:53:34;17.10;99.90
26707;DHT22;14319;49.422;10.934;2023-07-20T01:55:34;17.00;99.90
26707;DHT22;14319;49.422;10.934;2023-07-20T01:57:35;17.10;99.90
26707;DHT22;14319;49.422;10.934;2023-07-20T01:59:36;17.10;99.90
26707;DHT22;14319;49.422;10.934;2023-07-20T02:01:36;17.10;99.90
26707;DHT22;14319;49.422;10.934;2023-07-20T02:03:37;17.00;99.90
26707;DHT22;14319;49.422;10.934;2023-07-20T02:05:38;17.10;99.90
26707;DHT22;14319;49.422;10.934;2023-07-20T02:07:39;17.10;99.90
26707;DHT22;14319;49.422;10.934;2023-07-20T02:09:39;17.10;99.90
26707;DHT22;14319;49.422;10.934;2023-07-20T02:11:42;17.20;99.90
26707;DHT22;14319;49.422;10.934;2023-07-20T02:13:42;17.20;99.90
26707;DHT22;14319;49.422;10.934;2023-07-20T02:15:43;17.20;99.90
26707;DHT22;14319;49.422;10.934;2023-07-20T02:17:45;17.30;99.90
26707;DHT22;14319;49.422;10.934;2023-07-20T02:19:45;17.20;99.90
26707;DHT22;14319;49.422;10.934;2023-07-20T02:21:46;17.20;99.90
26707;DHT22;14319;49.422;10.934;2023-07-20T02:23:46;17.20;99.90
26707;DHT22;14319;49.422;10.934;2023-07-20T02:25:47;17.30;99.90
26707;DHT22;14319;49.422;10.934;2023-07-20T02:27:47;17.30;99.90
26707;DHT22;14319;49.422;10.934;2023-07-20T02:29:48;17.30;99.90
26707;DHT22;14319;49.422;10.934;2023-07-20T02:31:50;17.20;99.90
26707;DHT22;14319;49.422;10.934;2023-07-20T02:33:51;17.30;99.90
26707;DHT22;14319;49.422;10.934;2023-07-20T02:35:52;17.40;99.90
26707;DHT22;14319;49.422;10.934;2023-07-20T02:37:52;17.30;99.90
26707;DHT22;14319;49.422;10.934;2023-07-20T02:39:53;17.20;99.90
26707;DHT22;14319;49.422;10.934;2023-07-20T02:41:54;17.30;99.90
26707;DHT22;14319;49.422;10.934;2023-07-20T02:43:55;17.20;99.90
26707;DHT22;14319;49.422;10.934;2023-07-20T02:45:57;17.10;99.90
26707;DHT22;14319;49.422;10.934;2023-07-20T02:47:57;17.10;99.90
26707;DHT22;14319;49.422;10.934;2023-07-20T02:49:58;17.00;99.90
26707;DHT22;14319;49.422;10.934;2023-07-20T02:51:58;17.10;99.90
26707;DHT22;14319;49.422;10.934;2023-07-20T02:53:59;17.00;99.90
26707;DHT22;14319;49.422;10.934;2023-07-20T02:56:00;17.20;99.90
26707;DHT22;14319;49.422;10.934;2023-07-20T02:58:01;17.10;99.90
26707;DHT22;14319;49.422;10.934;2023-07-20T03:00:03;17.20;99.90
26707;DHT22;14319;49.422;10.934;2023-07-20T03:02:06;17.20;99.90
26707;DHT22;14319;49.422;10.934;2023-07-20T03:04:10;17.30;99.90
26707;DHT22;14319;49.422;10.934;2023-07-20T03:06:11;17.30;99.90
26707;DHT22;14319;49.422;10.934;2023-07-20T03:08:11;17.40;99.90
26707;DHT22;14319;49.422;10.934;2023-07-20T03:10:12;17.40;99.90
26707;DHT22;14319;49.422;10.934;2023-07-20T03:12:13;17.60;99.90
26707;DHT22;14319;49.422;10.934;2023-07-20T03:14:13;17.80;99.90
26707;DHT22;14319;49.422;10.934;2023-07-20T03:16:17;17.70;99.20
26707;DHT22;14319;49.422;10.934;2023-07-20T03:18:18;17.50;99.60
26707;DHT22;14319;49.422;10.934;2023-07-20T03:20:18;17.40;99.90
26707;DHT22;14319;49.422;10.934;2023-07-20T03:22:20;17.40;99.90
26707;DHT22;14319;49.422;10.934;2023-07-20T03:24:21;17.40;99.90
26707;DHT22;14319;49.422;10.934;2023-07-20T03:26:24;17.40;99.90
26707;DHT22;14319;49.422;10.934;2023-07-20T03:28:25;17.40;99.90
26707;DHT22;14319;49.422;10.934;2023-07-20T03:30:26;17.60;99.90
26707;DHT22;14319;49.422;10.934;2023-07-20T03:32:27;17.50;99.90
26707;DHT22;14319;49.422;10.934;2023-07-20T03:34:27;17.50;99.90
26707;DHT22;14319;49.422;10.934;2023-07-20T03:36:28;17.40;99.90
26707;DHT22;14319;49.422;10.934;2023-07-20T03:38:29;17.40;99.90
26707;DHT22;14319;49.422;10.934;2023-07-20T03:40:30;17.40;99.90
26707;DHT22;14319;49.422;10.934;2023-07-20T03:42:30;17.40;99.90
26707;DHT22;14319;49.422;10.934;2023-07-20T03:44:31;17.50;99.90
26707;DHT22;14319;49.422;10.934;2023-07-20T03:46:32;17.60;99.90
26707;DHT22;14319;49.422;10.934;2023-07-20T03:48:34;17.80;99.90
26707;DHT22;14319;49.422;10.934;2023-07-20T03:50:35;17.80;99.90
26707;DHT22;14319;49.422;10.934;2023-07-20T03:52:35;17.60;99.20
26707;DHT22;14319;49.422;10.934;2023-07-20T03:54:36;17.60;99.70
26707;DHT22;14319;49.422;10.934;2023-07-20T03:56:36;17.50;99.90
26707;DHT22;14319;49.422;10.934;2023-07-20T03:58:37;17.30;99.90
26707;DHT22;14319;49.422;10.934;2023-07-20T04:00:38;17.30;99.90
26707;DHT22;14319;49.422;10.934;2023-07-20T04:02:38;17.30;99.90
26707;DHT22;14319;49.422;10.934;2023-07-20T04:04:40;17.40;99.90
26707;DHT22;14319;49.422;10.934;2023-07-20T04:06:40;17.40;99.90
26707;DHT22;14319;49.422;10.934;2023-07-20T04:08:41;17.30;99.90
26707;DHT22;14319;49.422;10.934;2023-07-20T04:10:45;17.20;99.90
26707;DHT22;14319;49.422;10.934;2023-07-20T04:12:45;17.20;99.90
26707;DHT22;14319;49.422;10.934;2023-07-20T04:14:49;17.10;99.90
26707;DHT22;14319;49.422;10.934;2023-07-20T04:16:50;17.10;99.90
26707;DHT22;14319;49.422;10.934;2023-07-20T04:18:51;17.10;99.90
26707;DHT22;14319;49.422;10.934;2023-07-20T04:20:52;17.10;99.90
26707;DHT22;14319;49.422;10.934;2023-07-20T04:22:53;17.00;99.90
26707;DHT22;14319;49.422;10.934;2023-07-20T04:24:54;17.10;99.90
26707;DHT22;14319;49.422;10.934;2023-07-20T04:26:54;17.20;99.90
26707;DHT22;14319;49.422;10.934;2023-07-20T04:28:55;17.10;99.90
26707;DHT22;14319;49.422;10.934;2023-07-20T04:31:16;17.30;99.90
26707;DHT22;14319;49.422;10.934;2023-07-20T04:33:17;17.20;99.90
26707;DHT22;14319;49.422;10.934;2023-07-20T04:35:53;17.20;99.90
26707;DHT22;14319;49.422;10.934;2023-07-20T04:37:58;17.20;99.90
26707;DHT22;14319;49.422;10.934;2023-07-20T04:40:00;17.00;99.90
26707;DHT22;14319;49.422;10.934;2023-07-20T04:42:01;17.00;99.90
26707;DHT22;14319;49.422;10.934;2023-07-20T04:44:01;16.90;99.90
26707;DHT22;14319;49.422;10.934;2023-07-20T04:46:04;16.80;99.90
26707;DHT22;14319;49.422;10.934;2023-07-20T04:48:13;16.80;99.90
26707;DHT22;14319;49.422;10.934;2023-07-20T04:50:23;16.80;99.90
26707;DHT22;14319;49.422;10.934;2023-07-20T04:52:25;16.80;99.90
26707;DHT22;14319;49.422;10.934;2023-07-20T04:54:26;16.90;99.90
26707;DHT22;14319;49.422;10.934;2023-07-20T04:56:27;16.90;99.90
26707;DHT22;14319;49.422;10.934;2023-07-20T04:58:30;16.90;99.90
26707;DHT22;14319;49.422;10.934;2023-07-20T05:00:31;16.90;99.90
26707;DHT22;14319;49.422;10.934;2023-07-20T05:02:32;16.90;99.90
26707;DHT22;14319;49.422;10.934;2023-07-20T05:04:33;16.90;99.90
26707;DHT22;14319;49.422;10.934;2023-07-20T05:06:34;16.80;99.90
26707;DHT22;14319;49.422;10.934;2023-07-20T05:08:35;16.80;99.90
26707;DHT22;14319;49.422;10.934;2023-07-20T05:10:36;16.90;99.90
26707;DHT22;14319;49.422;10.934;2023-07-20T05:12:36;17.00;99.50
26707;DHT22;14319;49.422;10.934;2023-07-20T05:14:37;16.80;99.40
26707;DHT22;14319;49.422;10.934;2023-07-20T05:16:38;16.70;99.90
26707;DHT22;14319;49.422;10.934;2023-07-20T05:18:40;16.80;99.90
26707;DHT22;14319;49.422;10.934;2023-07-20T05:20:41;17.00;99.90
26707;DHT22;14319;49.422;10.934;2023-07-20T05:22:42;17.10;99.30
26707;DHT22;14319;49.422;10.934;2023-07-20T05:24:43;17.20;98.80
26707;DHT22;14319;49.422;10.934;2023-07-20T05:26:44;17.00;97.60
26707;DHT22;14319;49.422;10.934;2023-07-20T05:28:44;16.90;98.10
26707;DHT22;14319;49.422;10.934;2023-07-20T05:30:45;16.90;97.50
26707;DHT22;14319;49.422;10.934;2023-07-20T05:32:45;16.90;97.90
26707;DHT22;14319;49.422;10.934;2023-07-20T05:34:54;16.90;97.90
26707;DHT22;14319;49.422;10.934;2023-07-20T05:36:55;17.10;97.80
26707;DHT22;14319;49.422;10.934;2023-07-20T05:38:55;17.00;97.10
26707;DHT22;14319;49.422;10.934;2023-07-20T05:41:00;16.90;98.00
26707;DHT22;14319;49.422;10.934;2023-07-20T05:43:02;16.90;97.80
26707;DHT22;14319;49.422;10.934;2023-07-20T05:45:03;17.00;96.60
26707;DHT22;14319;49.422;10.934;2023-07-20T05:47:04;17.00;96.50
26707;DHT22;14319;49.422;10.934;2023-07-20T05:49:05;17.00;95.90
26707;DHT22;14319;49.422;10.934;2023-07-20T05:51:06;17.00;96.20
26707;DHT22;14319;49.422;10.934;2023-07-20T05:53:06;17.00;95.20
26707;DHT22;14319;49.422;10.934;2023-07-20T05:55:08;16.90;95.60
26707;DHT22;14319;49.422;10.934;2023-07-20T05:57:08;17.00;95.20
26707;DHT22;14319;49.422;10.934;2023-07-20T05:59:09;17.00;95.00
26707;DHT22;14319;49.422;10.934;2023-07-20T06:01:10;17.00;95.40
26707;DHT22;14319;49.422;10.934;2023-07-20T06:03:11;17.10;96.20
26707;DHT22;14319;49.422;10.934;2023-07-20T06:05:11;17.10;95.80
26707;DHT22;14319;49.422;10.934;2023-07-20T06:07:12;17.20;95.80
26707;DHT22;14319;49.422;10.934;2023-07-20T06:09:13;17.30;94.90
26707;DHT22;14319;49.422;10.934;2023-07-20T06:11:13;17.20;93.10
26707;DHT22;14319;49.422;10.934;2023-07-20T06:13:14;17.30;92.70
26707;DHT22;14319;49.422;10.934;2023-07-20T06:15:33;17.30;92.30
26707;DHT22;14319;49.422;10.934;2023-07-20T06:17:37;17.20;91.60
26707;DHT22;14319;49.422;10.934;2023-07-20T06:19:37;17.30;91.50
26707;DHT22;14319;49.422;10.934;2023-07-20T06:21:39;17.30;90.90
26707;DHT22;14319;49.422;10.934;2023-07-20T06:23:41;17.30;90.60
26707;DHT22;14319;49.422;10.934;2023-07-20T06:25:41;17.30;89.00
26707;DHT22;14319;49.422;10.934;2023-07-20T06:27:43;17.30;90.10
26707;DHT22;14319;49.422;10.934;2023-07-20T06:29:44;17.50;91.10
26707;DHT22;14319;49.422;10.934;2023-07-20T06:31:45;17.40;90.30
26707;DHT22;14319;49.422;10.934;2023-07-20T06:33:45;17.50;88.60
26707;DHT22;14319;49.422;10.934;2023-07-20T06:35:46;17.60;87.90
26707;DHT22;14319;49.422;10.934;2023-07-20T06:37:46;17.60;89.00
26707;DHT22;14319;49.422;10.934;2023-07-20T06:39:47;17.60;88.40
26707;DHT22;14319;49.422;10.934;2023-07-20T06:41:48;17.60;87.50
26707;DHT22;14319;49.422;10.934;2023-07-20T06:43:48;17.80;89.10
26707;DHT22;14319;49.422;10.934;2023-07-20T06:45:52;17.90;89.20
26707;DHT22;14319;49.422;10.934;2023-07-20T06:47:56;17.90;85.20
26707;DHT22;14319;49.422;10.934;2023-07-20T06:49:56;17.90;86.00
26707;DHT22;14319;49.422;10.934;2023-07-20T06:51:57;17.90;84.10
26707;DHT22;14319;49.422;10.934;2023-07-20T06:53:57;18.20;83.70
26707;DHT22;14319;49.422;10.934;2023-07-20T06:55:58;18.30;82.80
26707;DHT22;14319;49.422;10.934;2023-07-20T06:57:59;18.40;81.80
26707;DHT22;14319;49.422;10.934;2023-07-20T06:59:59;18.40;82.00
26707;DHT22;14319;49.422;10.934;2023-07-20T07:02:00;18.40;82.10
26707;DHT22;14319;49.422;10.934;2023-07-20T07:04:00;18.30;79.90
26707;DHT22;14319;49.422;10.934;2023-07-20T07:06:01;18.20;79.70
26707;DHT22;14319;49.422;10.934;2023-07-20T07:08:01;18.20;81.50
26707;DHT22;14319;49.422;10.934;2023-07-20T07:10:02;18.30;80.70
26707;DHT22;14319;49.422;10.934;2023-07-20T07:12:05;18.40;80.20
26707;DHT22;14319;49.422;10.934;2023-07-20T07:14:06;18.40;80.50
26707;DHT22;14319;49.422;10.934;2023-07-20T07:16:07;18.40;80.60
26707;DHT22;14319;49.422;10.934;2023-07-20T07:18:07;18.40;80.50
26707;DHT22;14319;49.422;10.934;2023-07-20T07:20:08;18.30;80.20
26707;DHT22;14319;49.422;10.934;2023-07-20T07:22:09;18.40;79.20
26707;DHT22;14319;49.422;10.934;2023-07-20T07:24:09;18.50;79.80
26707;DHT22;14319;49.422;10.934;2023-07-20T07:26:10;18.50;79.60
26707;DHT22;14319;49.422;10.934;2023-07-20T07:28:11;18.60;79.30
26707;DHT22;14319;49.422;10.934;2023-07-20T07:30:12;18.60;79.80
26707;DHT22;14319;49.422;10.934;2023-07-20T07:32:12;18.50;78.80
26707;DHT22;14319;49.422;10.934;2023-07-20T07:34:13;18.40;78.00
26707;DHT22;14319;49.422;10.934;2023-07-20T07:36:13;18.50;78.90
26707;DHT22;14319;49.422;10.934;2023-07-20T07:38:14;18.50;78.00
26707;DHT22;14319;49.422;10.934;2023-07-20T07:40:15;18.50;78.00
26707;DHT22;14319;49.422;10.934;2023-07-20T07:42:15;18.60;78.60
26707;DHT22;14319;49.422;10.934;2023-07-20T07:44:16;18.80;79.10
26707;DHT22;14319;49.422;10.934;2023-07-20T07:46:17;18.80;77.90
26707;DHT22;14319;49.422;10.934;2023-07-20T07:48:18;18.70;77.70
26707;DHT22;14319;49.422;10.934;2023-07-20T07:50:20;18.80;76.50
26707;DHT22;14319;49.422;10.934;2023-07-20T07:52:21;19.10;76.60
26707;DHT22;14319;49.422;10.934;2023-07-20T07:54:22;19.00;74.10
26707;DHT22;14319;49.422;10.934;2023-07-20T07:56:22;18.90;72.40
26707;DHT22;14319;49.422;10.934;2023-07-20T07:58:23;18.70;73.20
26707;DHT22;14319;49.422;10.934;2023-07-20T08:00:24;18.70;72.90
26707;DHT22;14319;49.422;10.934;2023-07-20T08:02:24;18.80;73.50
26707;DHT22;14319;49.422;10.934;2023-07-20T08:04:25;18.80;71.40
26707;DHT22;14319;49.422;10.934;2023-07-20T08:06:26;18.70;70.70
26707;DHT22;14319;49.422;10.934;2023-07-20T08:08:26;18.80;71.90
26707;DHT22;14319;49.422;10.934;2023-07-20T08:10:27;18.90;72.10
26707;DHT22;14319;49.422;10.934;2023-07-20T08:12:27;19.00;71.30
26707;DHT22;14319;49.422;10.934;2023-07-20T08:14:28;19.00;71.90
26707;DHT22;14319;49.422;10.934;2023-07-20T08:16:29;19.00;72.10
26707;DHT22;14319;49.422;10.934;2023-07-20T08:18:29;19.20;72.50
26707;DHT22;14319;49.422;10.934;2023-07-20T08:20:30;19.40;70.50
26707;DHT22;14319;49.422;10.934;2023-07-20T08:22:32;19.50;71.50
26707;DHT22;14319;49.422;10.934;2023-07-20T08:24:33;19.50;70.60
26707;DHT22;14319;49.422;10.934;2023-07-20T08:26:34;19.60;68.60
26707;DHT22;14319;49.422;10.934;2023-07-20T08:28:34;19.70;70.30
26707;DHT22;14319;49.422;10.934;2023-07-20T08:30:46;19.80;68.80
26707;DHT22;14319;49.422;10.934;2023-07-20T08:32:47;19.70;69.40
26707;DHT22;14319;49.422;10.934;2023-07-20T08:34:47;19.90;69.10
26707;DHT22;14319;49.422;10.934;2023-07-20T08:36:48;20.00;68.80
26707;DHT22;14319;49.422;10.934;2023-07-20T08:38:48;19.70;67.00
26707;DHT22;14319;49.422;10.934;2023-07-20T08:40:49;19.70;69.00
26707;DHT22;14319;49.422;10.934;2023-07-20T08:42:54;19.60;68.60
26707;DHT22;14319;49.422;10.934;2023-07-20T08:44:55;19.70;67.30
26707;DHT22;14319;49.422;10.934;2023-07-20T08:46:56;19.80;64.30
26707;DHT22;14319;49.422;10.934;2023-07-20T08:48:57;19.70;65.40
26707;DHT22;14319;49.422;10.934;2023-07-20T08:50:59;19.70;64.90
26707;DHT22;14319;49.422;10.934;2023-07-20T08:53:01;19.60;64.50
26707;DHT22;14319;49.422;10.934;2023-07-20T08:55:02;19.40;63.60
26707;DHT22;14319;49.422;10.934;2023-07-20T08:57:05;19.50;65.20
26707;DHT22;14319;49.422;10.934;2023-07-20T08:59:08;19.80;64.90
26707;DHT22;14319;49.422;10.934;2023-07-20T09:01:09;20.00;63.80
26707;DHT22;14319;49.422;10.934;2023-07-20T09:03:11;20.20;64.00
26707;DHT22;14319;49.422;10.934;2023-07-20T09:05:11;20.40;64.10
26707;DHT22;14319;49.422;10.934;2023-07-20T09:07:14;20.50;63.00
26707;DHT22;14319;49.422;10.934;2023-07-20T09:09:16;20.60;64.10
26707;DHT22;14319;49.422;10.934;2023-07-20T09:11:16;20.80;61.20
26707;DHT22;14319;49.422;10.934;2023-07-20T09:13:17;20.70;61.30
26707;DHT22;14319;49.422;10.934;2023-07-20T09:15:20;20.80;62.50
26707;DHT22;14319;49.422;10.934;2023-07-20T09:17:25;21.00;63.30
26707;DHT22;14319;49.422;10.934;2023-07-20T09:19:26;20.80;62.30
26707;DHT22;14319;49.422;10.934;2023-07-20T09:21:30;20.50;60.40
26707;DHT22;14319;49.422;10.934;2023-07-20T09:23:36;20.20;60.70
26707;DHT22;14319;49.422;10.934;2023-07-20T09:25:37;20.40;60.80
26707;DHT22;14319;49.422;10.934;2023-07-20T09:27:38;20.50;61.30
26707;DHT22;14319;49.422;10.934;2023-07-20T09:29:49;20.50;59.40
26707;DHT22;14319;49.422;10.934;2023-07-20T09:32:04;20.50;59.90
26707;DHT22;14319;49.422;10.934;2023-07-20T09:34:05;20.60;59.70
26707;DHT22;14319;49.422;10.934;2023-07-20T09:36:05;20.10;59.30
26707;DHT22;14319;49.422;10.934;2023-07-20T09:38:06;20.10;60.70
26707;DHT22;14319;49.422;10.934;2023-07-20T09:40:09;20.20;61.60
26707;DHT22;14319;49.422;10.934;2023-07-20T09:42:11;20.30;61.10
26707;DHT22;14319;49.422;10.934;2023-07-20T09:44:14;20.40;60.70
26707;DHT22;14319;49.422;10.934;2023-07-20T09:46:15;20.50;59.80
26707;DHT22;14319;49.422;10.934;2023-07-20T09:48:17;20.60;61.20
26707;DHT22;14319;49.422;10.934;2023-07-20T09:50:23;20.80;59.80
26707;DHT22;14319;49.422;10.934;2023-07-20T09:52:25;20.90;58.30
26707;DHT22;14319;49.422;10.934;2023-07-20T09:54:27;20.90;58.60
26707;DHT22;14319;49.422;10.934;2023-07-20T09:56:30;21.10;59.90
26707;DHT22;14319;49.422;10.934;2023-07-20T09:58:32;21.00;57.40
26707;DHT22;14319;49.422;10.934;2023-07-20T10:00:35;21.10;58.00
26707;DHT22;14319;49.422;10.934;2023-07-20T10:02:43;21.10;56.70
26707;DHT22;14319;49.422;10.934;2023-07-20T10:04:44;21.20;56.20
26707;DHT22;14319;49.422;10.934;2023-07-20T10:06:47;21.40;56.80
26707;DHT22;14319;49.422;10.934;2023-07-20T10:08:50;21.40;55.70
26707;DHT22;14319;49.422;10.934;2023-07-20T10:10:52;21.20;55.80
26707;DHT22;14319;49.422;10.934;2023-07-20T10:12:53;21.00;56.70
26707;DHT22;14319;49.422;10.934;2023-07-20T10:15:24;21.00;57.50
26707;DHT22;14319;49.422;10.934;2023-07-20T10:17:25;21.10;58.10
26707;DHT22;14319;49.422;10.934;2023-07-20T10:19:48;21.20;56.60
26707;DHT22;14319;49.422;10.934;2023-07-20T10:22:00;21.20;57.80
26707;DHT22;14319;49.422;10.934;2023-07-20T10:24:02;21.00;57.70
26707;DHT22;14319;49.422;10.934;2023-07-20T10:26:04;21.00;58.90
26707;DHT22;14319;49.422;10.934;2023-07-20T10:28:05;21.10;58.80
26707;DHT22;14319;49.422;10.934;2023-07-20T10:30:07;21.30;59.40
26707;DHT22;14319;49.422;10.934;2023-07-20T10:32:09;21.30;58.10
26707;DHT22;14319;49.422;10.934;2023-07-20T10:34:10;21.50;53.80
26707;DHT22;14319;49.422;10.934;2023-07-20T10:36:11;21.60;54.80
26707;DHT22;14319;49.422;10.934;2023-07-20T10:38:12;21.50;55.50
26707;DHT22;14319;49.422;10.934;2023-07-20T10:40:34;21.50;56.80
26707;DHT22;14319;49.422;10.934;2023-07-20T10:42:38;21.40;56.00
26707;DHT22;14319;49.422;10.934;2023-07-20T10:44:40;21.40;57.30
26707;DHT22;14319;49.422;10.934;2023-07-20T10:46:45;21.40;57.50
26707;DHT22;14319;49.422;10.934;2023-07-20T10:49:03;21.40;53.10
26707;DHT22;14319;49.422;10.934;2023-07-20T10:51:14;21.30;53.20
26707;DHT22;14319;49.422;10.934;2023-07-20T10:53:20;21.50;54.40
26707;DHT22;14319;49.422;10.934;2023-07-20T10:55:20;21.60;54.90
26707;DHT22;14319;49.422;10.934;2023-07-20T10:57:29;21.80;54.30
26707;DHT22;14319;49.422;10.934;2023-07-20T11:01:36;22.00;54.60
26707;DHT22;14319;49.422;10.934;2023-07-20T11:03:38;22.10;53.90
26707;DHT22;14319;49.422;10.934;2023-07-20T11:05:40;22.20;52.40
26707;DHT22;14319;49.422;10.934;2023-07-20T11:07:41;22.30;53.00
26707;DHT22;14319;49.422;10.934;2023-07-20T11:09:41;22.30;53.30
26707;DHT22;14319;49.422;10.934;2023-07-20T11:11:45;22.10;52.20
26707;DHT22;14319;49.422;10.934;2023-07-20T11:14:23;22.40;52.40
26707;DHT22;14319;49.422;10.934;2023-07-20T11:16:45;22.40;50.20
26707;DHT22;14319;49.422;10.934;2023-07-20T11:18:46;22.50;51.30
26707;DHT22;14319;49.422;10.934;2023-07-20T11:20:50;22.50;48.30
26707;DHT22;14319;49.422;10.934;2023-07-20T11:22:51;22.50;49.70
26707;DHT22;14319;49.422;10.934;2023-07-20T11:24:58;22.60;47.10
26707;DHT22;14319;49.422;10.934;2023-07-20T11:26:59;22.60;47.30
26707;DHT22;14319;49.422;10.934;2023-07-20T11:29:00;22.40;46.90
26707;DHT22;14319;49.422;10.934;2023-07-20T11:31:00;22.50;49.00
26707;DHT22;14319;49.422;10.934;2023-07-20T11:33:01;22.40;48.20
26707;DHT22;14319;49.422;10.934;2023-07-20T11:35:02;22.30;49.00
26707;DHT22;14319;49.422;10.934;2023-07-20T11:37:02;22.10;48.60
26707;DHT22;14319;49.422;10.934;2023-07-20T11:39:04;21.90;49.80
26707;DHT22;14319;49.422;10.934;2023-07-20T11:41:06;22.00;52.10
26707;DHT22;14319;49.422;10.934;2023-07-20T11:43:07;22.30;50.30
26707;DHT22;14319;49.422;10.934;2023-07-20T11:45:08;22.20;48.00
26707;DHT22;14319;49.422;10.934;2023-07-20T11:47:13;22.30;50.40
26707;DHT22;14319;49.422;10.934;2023-07-20T11:49:13;22.40;48.80
26707;DHT22;14319;49.422;10.934;2023-07-20T11:51:15;22.50;46.30
26707;DHT22;14319;49.422;10.934;2023-07-20T11:53:17;22.40;45.10
26707;DHT22;14319;49.422;10.934;2023-07-20T11:55:18;22.50;47.90
26707;DHT22;14319;49.422;10.934;2023-07-20T11:57:20;22.60;46.00
26707;DHT22;14319;49.422;10.934;2023-07-20T11:59:20;22.50;45.40
26707;DHT22;14319;49.422;10.934;2023-07-20T12:01:21;22.40;46.30
26707;DHT22;14319;49.422;10.934;2023-07-20T12:03:21;22.40;45.50
26707;DHT22;14319;49.422;10.934;2023-07-20T12:05:22;22.50;44.80
26707;DHT22;14319;49.422;10.934;2023-07-20T12:07:25;22.50;45.50
26707;DHT22;14319;49.422;10.934;2023-07-20T12:09:26;22.50;46.60
26707;DHT22;14319;49.422;10.934;2023-07-20T12:11:37;22.60;42.90
26707;DHT22;14319;49.422;10.934;2023-07-20T12:13:42;22.60;42.30
26707;DHT22;14319;49.422;10.934;2023-07-20T12:15:43;22.40;41.60
26707;DHT22;14319;49.422;10.934;2023-07-20T12:17:44;22.50;42.60
26707;DHT22;14319;49.422;10.934;2023-07-20T12:19:45;22.60;43.00
26707;DHT22;14319;49.422;10.934;2023-07-20T12:21:46;22.80;43.90
26707;DHT22;14319;49.422;10.934;2023-07-20T12:23:47;22.90;44.80
26707;DHT22;14319;49.422;10.934;2023-07-20T12:25:47;22.70;42.50
26707;DHT22;14319;49.422;10.934;2023-07-20T12:27:48;22.50;42.90
26707;DHT22;14319;49.422;10.934;2023-07-20T12:29:49;22.60;44.30
26707;DHT22;14319;49.422;10.934;2023-07-20T12:31:50;22.60;44.00
26707;DHT22;14319;49.422;10.934;2023-07-20T12:33:51;22.70;44.80
26707;DHT22;14319;49.422;10.934;2023-07-20T12:35:52;22.70;44.30
26707;DHT22;14319;49.422;10.934;2023-07-20T12:37:56;22.90;45.10
26707;DHT22;14319;49.422;10.934;2023-07-20T12:39:56;22.90;45.60
26707;DHT22;14319;49.422;10.934;2023-07-20T12:41:57;22.90;44.60
26707;DHT22;14319;49.422;10.934;2023-07-20T12:43:58;23.10;43.60
26707;DHT22;14319;49.422;10.934;2023-07-20T12:45:59;23.30;44.20
26707;DHT22;14319;49.422;10.934;2023-07-20T12:47:59;23.40;43.70
26707;DHT22;14319;49.422;10.934;2023-07-20T12:50:00;23.50;43.30
26707;DHT22;14319;49.422;10.934;2023-07-20T12:52:00;23.60;42.90
26707;DHT22;14319;49.422;10.934;2023-07-20T12:54:01;23.60;44.00
26707;DHT22;14319;49.422;10.934;2023-07-20T12:56:02;23.30;42.70